Time;durP1;ratioP1;P1;durP2;ratioP2;P2;SDS_P1;SDS_P2;PMS_P1;PMS_P2;Temp;Humidity;BMP_temperature;BMP_pressure;BME280_temperature;BME280_humidity;BME280_pressure;Samples;Min_cycle;Max_cycle;Signal;HPM_P1;HPM_P2
2022/06/04 00:00:53;;;;;;;23.83;18.05;;;9.00;99.90;;;9.57;100.00;99904.41;5065260;27;121003;-73
2022/06/04 00:03:23;;;;;;;22.95;17.90;;;9.00;99.90;;;9.56;100.00;99897.34;5048096;27;128558;-74
2022/06/04 00:05:54;;;;;;;22.02;17.38;;;9.00;99.90;;;9.55;100.00;99890.31;5062207;27;129443;-75
2022/06/04 00:08:24;;;;;;;20.50;16.35;;;8.90;99.90;;;9.53;100.00;99903.38;5031876;27;118714;-75
2022/06/04 00:16:30;;;;;;;24.92;18.10;;;8.90;99.90;;;9.45;100.00;99882.38;5030882;27;129319;-74
2022/06/04 00:19:00;;;;;;;22.67;17.65;;;8.90;99.90;;;9.40;100.00;99887.88;5047980;27;119435;-75
2022/06/04 00:21:28;;;;;;;25.35;17.88;;;8.90;99.90;;;9.42;100.00;99885.66;5063375;27;119555;-74
2022/06/04 00:23:57;;;;;;;24.55;18.00;;;8.80;99.90;;;9.48;100.00;99893.41;5062129;27;131559;-77
2022/06/04 00:26:26;;;;;;;24.35;18.58;;;8.80;99.90;;;9.48;100.00;99900.75;5062695;27;129728;-75
2022/06/04 00:28:54;;;;;;;22.08;16.02;;;8.70;99.90;;;9.42;100.00;99896.50;5048160;27;119437;-74
2022/06/04 00:31:25;;;;;;;21.15;14.82;;;8.70;99.90;;;9.33;100.00;99902.59;5044116;27;119469;-77
2022/06/04 00:33:55;;;;;;;20.15;15.95;;;8.60;99.90;;;9.27;100.00;99903.75;5062198;27;129949;-75
2022/06/04 00:36:23;;;;;;;21.58;16.75;;;8.70;99.90;;;9.19;100.00;99888.16;5061953;27;129337;-77
2022/06/04 00:38:52;;;;;;;23.02;16.27;;;8.60;99.90;;;9.19;100.00;99890.84;5060627;27;122795;-77
2022/06/04 00:41:37;;;;;;;21.15;16.00;;;8.60;99.90;;;9.22;100.00;99887.56;5046367;27;121132;-74
2022/06/04 00:45:03;;;;;;;21.70;15.82;;;8.50;99.90;;;9.17;100.00;99891.16;5045484;27;129315;-76
2022/06/04 00:47:31;;;;;;;20.67;15.70;;;8.50;99.90;;;9.14;100.00;99890.94;5061191;27;130762;-76
2022/06/04 00:50:01;;;;;;;22.25;16.48;;;8.50;99.90;;;9.07;100.00;99893.19;5046993;27;118318;-74
2022/06/04 00:52:30;;;;;;;21.08;16.65;;;8.50;99.90;;;9.06;100.00;99899.72;5046969;27;119320;-76
2022/06/04 00:55:00;;;;;;;22.95;16.05;;;8.50;99.90;;;9.09;100.00;99899.13;5046564;27;129209;-75
2022/06/04 00:58:11;;;;;;;22.60;16.38;;;8.40;99.90;;;9.11;100.00;99905.06;5043872;27;130078;-74
2022/06/04 01:00:47;;;;;;;23.55;16.77;;;8.40;99.90;;;9.10;100.00;99898.03;5062806;27;119377;-76
2022/06/04 01:03:31;;;;;;;22.02;16.90;;;8.50;99.90;;;8.92;100.00;99900.41;5030389;27;118350;-75
2022/06/04 01:06:40;;;;;;;23.48;17.35;;;8.50;99.90;;;8.81;100.00;99901.66;5041158;27;129871;-75
2022/06/04 01:09:44;;;;;;;23.40;17.15;;;8.50;99.90;;;8.83;100.00;99896.75;5045636;27;128468;-76
2022/06/04 01:12:37;;;;;;;23.95;16.48;;;8.50;99.90;;;8.90;100.00;99899.13;5060762;27;120044;-72
2022/06/04 01:15:20;;;;;;;21.40;16.20;;;8.40;99.90;;;8.92;100.00;99899.63;5029399;27;118502;-75
2022/06/04 01:18:04;;;;;;;22.25;17.15;;;8.30;99.90;;;8.90;100.00;99891.78;5045740;27;129575;-74
2022/06/04 01:20:46;;;;;;;23.35;16.58;;;8.30;99.90;;;8.89;100.00;99890.19;5045389;27;129355;-76
2022/06/04 01:24:03;;;;;;;21.45;16.42;;;8.20;99.90;;;8.82;100.00;99895.16;5060997;27;119665;-74
2022/06/04 01:27:12;;;;;;;27.15;16.60;;;8.20;99.90;;;8.79;100.00;99895.72;5063455;27;119898;-76
2022/06/04 01:29:51;;;;;;;23.75;17.23;;;8.30;99.90;;;8.81;100.00;99888.13;5047880;27;130091;-75
2022/06/04 01:32:27;;;;;;;22.60;17.27;;;8.20;99.90;;;8.84;100.00;99898.38;5048293;27;128185;-76
2022/06/04 01:35:11;;;;;;;23.23;17.17;;;8.30;99.90;;;8.86;100.00;99895.38;5064639;27;120934;-74
2022/06/04 01:37:47;;;;;;;23.35;17.25;;;8.30;99.90;;;8.85;100.00;99888.34;5063775;27;122445;-78
2022/06/04 01:43:18;;;;;;;22.90;17.00;;;8.30;99.90;;;8.82;100.00;99889.75;5045800;27;128390;-77
2022/06/04 01:45:49;;;;;;;25.75;18.40;;;8.30;99.90;;;8.79;100.00;99893.03;5045249;27;118312;-75
2022/06/04 01:48:21;;;;;;;24.83;17.73;;;8.40;99.90;;;8.82;100.00;99895.16;5060437;27;119602;-76
2022/06/04 01:50:55;;;;;;;26.00;17.42;;;8.40;99.90;;;8.84;100.00;99889.44;5059877;27;130428;-77
2022/06/04 01:53:33;;;;;;;23.75;17.25;;;8.40;99.90;;;8.84;100.00;99887.53;5060074;27;130021;-77
2022/06/04 01:56:06;;;;;;;23.25;17.20;;;8.40;99.90;;;8.89;100.00;99890.19;5059739;27;119296;-77
2022/06/04 01:58:43;;;;;;;21.70;15.63;;;8.40;99.90;;;8.93;100.00;99893.13;5060343;27;119536;-78
2022/06/04 02:01:15;;;;;;;24.48;17.23;;;8.40;99.90;;;8.94;100.00;99887.41;5059262;27;129836;-76
2022/06/04 02:03:53;;;;;;;22.27;17.23;;;8.40;99.90;;;9.02;100.00;99893.25;5044507;27;128494;-77
2022/06/04 02:06:27;;;;;;;24.15;17.58;;;8.50;99.90;;;9.08;100.00;99894.81;5057885;27;119455;-77
2022/06/04 02:09:02;;;;;;;23.33;15.98;;;8.50;99.90;;;9.12;100.00;99903.97;5027951;27;118973;-75
2022/06/04 02:11:32;;;;;;;23.50;17.02;;;8.50;99.90;;;9.14;100.00;99897.16;5059119;27;130324;-75
2022/06/04 02:14:07;;;;;;;24.83;17.40;;;8.50;99.90;;;9.19;100.00;99893.56;5050857;27;129718;-77
2022/06/04 02:16:42;;;;;;;22.95;16.50;;;8.60;99.90;;;9.30;100.00;99900.47;5059361;27;120892;-75
2022/06/04 02:19:10;;;;;;;24.95;17.75;;;8.60;99.90;;;9.32;100.00;99892.84;5059757;27;120578;-76
2022/06/04 02:21:39;;;;;;;25.20;18.55;;;8.70;99.90;;;9.39;100.00;99897.09;5058807;27;130562;-75
2022/06/04 02:24:10;;;;;;;22.95;16.30;;;8.70;99.90;;;9.40;100.00;99899.50;5058581;27;129486;-74
2022/06/04 02:26:41;;;;;;;19.88;16.35;;;8.80;99.90;;;9.54;100.00;99899.56;5059156;27;122232;-77
2022/06/04 02:29:11;;;;;;;24.40;15.70;;;8.80;99.90;;;9.63;100.00;99896.97;5060899;27;121942;-77
2022/06/04 02:31:46;;;;;;;19.80;15.35;;;8.80;99.90;;;9.61;100.00;99894.56;5060235;27;129604;-77
2022/06/04 02:34:24;;;;;;;22.25;15.13;;;8.90;99.90;;;9.64;100.00;99899.38;5044998;27;129762;-77
2022/06/04 02:37:02;;;;;;;25.23;16.20;;;8.90;99.90;;;9.75;100.00;99904.66;5045482;27;119317;-76
2022/06/04 02:39:39;;;;;;;21.50;16.88;;;9.00;99.90;;;9.80;100.00;99901.84;5030271;27;118823;-76
2022/06/04 02:42:14;;;;;;;23.27;16.23;;;9.10;99.90;;;9.79;100.00;99903.78;5058910;27;130011;-78
2022/06/04 02:44:51;;;;;;;22.63;15.93;;;9.10;99.90;;;9.86;100.00;99890.66;5043966;27;129705;-77
2022/06/04 02:47:25;;;;;;;22.25;14.98;;;9.20;99.90;;;9.98;100.00;99884.75;5059139;27;119781;-75
2022/06/04 02:50:02;;;;;;;21.05;15.27;;;9.20;99.90;;;10.07;100.00;99890.28;5059694;27;119547;-76
2022/06/04 02:52:34;;;;;;;17.70;14.50;;;9.30;99.90;;;10.24;100.00;99889.72;5057615;27;130333;-76
2022/06/04 02:55:08;;;;;;;20.73;14.48;;;9.50;99.90;;;10.42;100.00;99880.72;5058742;27;129571;-78
2022/06/04 02:57:40;;;;;;;20.63;14.40;;;9.60;99.90;;;10.63;100.00;99880.31;5059261;27;119533;-78
2022/06/04 03:00:13;;;;;;;21.73;14.32;;;9.80;99.90;;;10.89;100.00;99877.06;5027080;27;119197;-77
2022/06/04 03:02:43;;;;;;;18.25;13.85;;;10.00;99.90;;;11.22;100.00;99879.59;5038310;27;131406;-76
2022/06/04 03:05:16;;;;;;;14.98;11.43;;;10.20;99.90;;;12.25;100.00;99877.94;5038340;27;129131;-78
2022/06/04 03:07:48;;;;;;;14.80;9.38;;;10.90;99.90;;;13.61;98.49;99878.03;5037395;27;119606;-76
2022/06/04 03:10:20;;;;;;;13.23;9.05;;;11.90;99.90;;;14.87;89.68;99877.00;5038643;27;119470;-78
2022/06/04 03:12:49;;;;;;;11.25;7.82;;;12.60;99.90;;;16.07;82.44;99889.19;5038254;27;129679;-78
2022/06/04 03:15:20;;;;;;;12.48;8.38;;;13.30;1.00;;;17.02;75.53;99888.34;5023493;27;128556;-78
2022/06/04 03:17:50;;;;;;;13.25;8.38;;;13.70;1.00;;;17.95;71.29;99884.69;5040392;27;122338;-78
2022/06/04 03:20:22;;;;;;;12.30;8.05;;;14.10;1.00;;;18.30;67.81;99878.53;5042689;27;122278;-78
2022/06/04 03:22:51;;;;;;;12.88;8.48;;;14.10;1.00;;;18.14;66.30;99884.81;5041947;27;130213;-77
2022/06/04 03:25:21;;;;;;;14.63;9.70;;;14.10;1.00;;;17.51;67.37;99888.19;5041766;27;129496;-78
2022/06/04 03:27:50;;;;;;;14.20;10.00;;;13.40;1.00;;;17.01;69.25;99881.25;5042255;27;119268;-79
2022/06/04 03:30:20;;;;;;;14.45;10.30;;;13.00;1.00;;;16.58;70.75;99883.44;5042337;27;120290;-77
2022/06/04 03:32:48;;;;;;;14.25;11.07;;;12.70;1.00;;;16.07;72.81;99886.44;5043541;27;128335;-78
2022/06/04 03:35:17;;;;;;;14.85;10.68;;;12.60;1.00;;;15.73;75.11;99885.63;5027021;27;128366;-78
2022/06/04 03:37:46;;;;;;;15.23;11.63;;;12.60;1.00;;;15.38;77.36;99896.88;5041871;27;120020;-78
2022/06/04 03:40:15;;;;;;;15.75;12.27;;;12.50;1.00;;;15.08;79.13;99890.66;5026141;27;119032;-78
2022/06/04 03:42:44;;;;;;;16.38;11.88;;;12.50;1.00;;;15.01;79.95;99893.94;5040073;27;129863;-78
2022/06/04 03:45:15;;;;;;;18.67;11.82;;;12.50;1.00;;;15.03;80.52;99897.13;5046117;27;129933;-77
2022/06/04 03:47:45;;;;;;;15.77;12.35;;;12.80;1.00;;;15.10;81.00;99891.94;5050395;27;119760;-78
2022/06/04 03:50:18;;;;;;;16.05;12.05;;;13.00;1.00;;;15.25;81.28;99897.94;5025866;27;118487;-78
2022/06/04 03:52:49;;;;;;;16.63;12.55;;;13.20;1.00;;;15.25;81.28;99903.41;5025942;27;128943;-78
2022/06/04 03:55:19;;;;;;;17.85;12.75;;;13.30;1.00;;;15.19;82.07;99896.53;5041190;27;131182;-77
2022/06/04 03:57:50;;;;;;;17.88;12.18;;;13.40;1.00;;;15.28;81.89;99886.34;5041100;27;119402;-78
2022/06/04 04:00:26;;;;;;;15.93;12.10;;;13.50;1.00;;;15.42;81.80;99886.88;5042462;27;119516;-78
2022/06/04 04:02:59;;;;;;;17.13;11.55;;;13.70;1.00;;;15.63;81.93;99892.31;5060033;27;128995;-78
2022/06/04 04:05:31;;;;;;;16.17;11.50;;;14.00;1.00;;;15.98;80.85;99885.75;5061515;27;129707;-78
2022/06/04 04:08:01;;;;;;;14.95;10.90;;;14.30;1.00;;;16.48;79.60;99887.41;5061107;27;122604;-77
2022/06/04 04:10:31;;;;;;;12.73;10.07;;;14.70;1.00;;;16.75;78.55;99878.84;5029591;27;120832;-77
2022/06/04 04:13:00;;;;;;;12.70;9.00;;;15.00;1.00;;;17.20;77.07;99886.94;5063424;27;129474;-77
2022/06/04 04:15:29;;;;;;;9.32;7.47;;;15.40;1.00;;;17.57;74.10;99878.56;5061486;27;130192;-78
2022/06/04 04:17:59;;;;;;;11.55;6.40;;;15.60;1.00;;;17.82;71.35;99888.63;5061820;27;119662;-78
2022/06/04 04:20:31;;;;;;;7.85;5.90;;;15.80;1.00;;;17.74;69.38;99879.41;5061970;27;119012;-78
2022/06/04 04:23:00;;;;;;;6.88;5.13;;;15.70;99.90;;;17.76;68.08;99879.84;5061927;27;129496;-77
2022/06/04 04:25:31;;;;;;;6.43;4.43;;;15.70;99.90;;;17.56;68.00;99881.66;5040132;27;128243;-77
2022/06/04 04:28:01;;;;;;;7.28;4.53;;;15.70;99.90;;;17.60;67.28;99880.59;5062967;27;119392;-76
2022/06/04 04:30:34;;;;;;;7.40;4.43;;;15.60;99.90;;;17.30;67.03;99877.41;5047718;27;119221;-74
2022/06/04 04:33:07;;;;;;;5.88;3.55;;;15.40;99.90;;;17.02;65.13;99883.63;5045210;27;128862;-77
2022/06/04 04:35:36;;;;;;;8.63;3.83;;;15.00;99.90;;;17.05;66.45;99884.91;5055485;27;129227;-79
2022/06/04 04:38:05;;;;;;;4.72;3.42;;;15.20;99.90;;;17.34;66.52;99883.00;5061667;27;119509;-77
2022/06/04 04:40:34;;;;;;;5.70;3.50;;;15.40;99.90;;;17.58;64.99;99882.91;5039867;27;119033;-78
2022/06/04 04:43:03;;;;;;;4.97;3.35;;;15.60;99.90;;;17.66;64.23;99877.63;5062707;27;129404;-77
2022/06/04 04:45:32;;;;;;;5.05;3.22;;;15.70;99.90;;;17.75;64.10;99870.81;5073490;27;129036;-78
2022/06/04 04:48:00;;;;;;;7.47;3.78;;;15.90;99.90;;;17.83;63.99;99871.81;5061070;27;119628;-78
2022/06/04 04:50:35;;;;;;;5.35;3.10;;;16.00;99.90;;;17.92;63.37;99869.75;5061657;27;119468;-78
2022/06/04 04:53:12;;;;;;;4.70;3.00;;;16.10;99.90;;;17.96;61.84;99859.63;5060970;27;129578;-74
2022/06/04 04:55:45;;;;;;;5.03;3.33;;;16.20;99.90;;;18.03;61.31;99863.72;5057162;27;128892;-77
2022/06/04 04:58:14;;;;;;;6.00;3.10;;;16.10;99.90;;;18.19;61.16;99855.50;5060006;27;122953;-76
2022/06/04 05:00:44;;;;;;;7.93;2.90;;;16.30;99.90;;;18.33;60.08;99862.13;5055694;27;121825;-78
2022/06/04 05:03:13;;;;;;;7.55;3.33;;;16.40;99.90;;;18.54;60.59;99855.56;5061245;27;127594;-77
2022/06/04 05:05:43;;;;;;;5.18;2.78;;;16.60;99.90;;;18.68;59.72;99861.41;5060623;27;129663;-77
2022/06/04 05:08:12;;;;;;;5.32;2.80;;;16.70;99.90;;;18.77;58.09;99857.66;5060722;27;120037;-78
2022/06/04 05:10:43;;;;;;;6.45;2.95;;;16.70;99.90;;;18.84;58.42;99864.16;5057047;27;120058;-77
2022/06/04 05:13:11;;;;;;;11.32;3.05;;;16.80;99.90;;;19.03;58.90;99857.88;5076285;27;129449;-77
2022/06/04 05:15:40;;;;;;;4.75;2.65;;;17.00;99.90;;;19.16;58.40;99852.25;5060500;27;130027;-79
2022/06/04 05:18:10;;;;;;;4.88;2.70;;;17.10;99.90;;;19.31;57.54;99845.88;5060824;27;119915;-76
2022/06/04 05:20:41;;;;;;;6.15;2.78;;;17.20;99.90;;;19.37;56.27;99852.69;5060773;27;119096;-77
2022/06/04 05:23:11;;;;;;;4.75;2.80;;;17.30;99.90;;;19.43;55.99;99849.66;5059651;27;130076;-77
2022/06/04 05:25:39;;;;;;;5.38;2.90;;;17.30;99.90;;;19.60;56.21;99840.94;5060388;27;129710;-78
2022/06/04 05:28:08;;;;;;;4.68;2.47;;;17.50;99.90;;;19.79;56.21;99839.34;5060897;27;120360;-77
2022/06/04 05:30:36;;;;;;;5.80;2.60;;;17.70;99.90;;;19.88;54.20;99843.47;5073476;27;119228;-77
2022/06/04 05:33:07;;;;;;;5.30;2.20;;;17.70;99.90;;;19.93;53.81;99839.63;5060413;27;130417;-78
2022/06/04 05:35:37;;;;;;;4.82;2.65;;;17.90;99.90;;;20.07;53.66;99834.34;5055798;27;129165;-78
2022/06/04 05:38:06;;;;;;;5.28;2.50;;;18.00;99.90;;;20.36;53.40;99834.81;5060595;27;119287;-77
2022/06/04 05:40:37;;;;;;;3.20;2.00;;;18.10;99.90;;;20.41;51.64;99837.28;5059382;27;119520;-77
2022/06/04 05:43:06;;;;;;;4.75;2.03;;;18.10;99.90;;;20.54;52.16;99835.09;5060551;27;130081;-77
2022/06/04 05:45:34;;;;;;;5.20;2.25;;;18.30;99.90;;;20.48;50.39;99837.34;5055266;27;129718;-76
2022/06/04 05:48:03;;;;;;;5.60;2.10;;;18.10;99.90;;;20.35;50.25;99832.41;5059881;27;122533;-77
2022/06/04 05:50:31;;;;;;;4.32;2.00;;;18.00;99.90;;;20.41;51.28;99831.75;5061189;27;121699;-77
2022/06/04 05:53:00;;;;;;;4.45;2.30;;;18.10;99.90;;;20.60;51.83;99827.28;5059853;27;129882;-76
2022/06/04 05:55:29;;;;;;;4.25;2.10;;;18.40;99.90;;;20.70;49.96;99837.72;5060351;27;130475;-77
2022/06/04 05:57:59;;;;;;;5.28;2.10;;;18.30;99.90;;;20.91;51.79;99836.41;5056052;27;119923;-77
2022/06/04 06:00:28;;;;;;;4.57;2.00;;;18.50;99.90;;;20.94;49.52;99838.44;5054620;27;118225;-76
2022/06/04 06:02:56;;;;;;;4.05;1.90;;;18.60;99.90;;;20.82;48.60;99839.47;5061458;27;130437;-77
2022/06/04 06:05:25;;;;;;;4.72;1.95;;;18.50;99.90;;;20.90;49.20;99840.38;5045084;27;129596;-77
2022/06/04 06:07:53;;;;;;;3.30;2.00;;;18.60;99.90;;;21.07;47.95;99839.81;5060054;27;119811;-77
2022/06/04 06:10:22;;;;;;;3.70;1.88;;;18.80;99.90;;;21.03;47.87;99833.44;5060050;27;120381;-77
2022/06/04 06:12:50;;;;;;;4.95;1.92;;;18.70;99.90;;;20.99;47.80;99832.59;5058536;27;130195;-76
2022/06/04 06:15:20;;;;;;;5.10;2.05;;;18.60;99.90;;;20.88;48.49;99826.94;5059588;27;129987;-77
2022/06/04 06:17:49;;;;;;;6.55;2.13;;;18.60;99.90;;;20.78;48.10;99817.34;5041615;27;119128;-76
2022/06/04 06:20:17;;;;;;;7.43;2.67;;;18.50;99.90;;;20.70;47.51;99825.91;5044629;27;118474;-74
2022/06/04 06:22:47;;;;;;;4.47;2.40;;;18.20;99.90;;;20.72;46.67;99818.81;5059691;27;131136;-77
2022/06/04 06:25:16;;;;;;;5.38;2.10;;;18.40;99.90;;;20.83;47.58;99813.47;5044753;27;128861;-73
2022/06/04 06:27:45;;;;;;;4.18;1.92;;;18.50;99.90;;;20.97;46.44;99810.09;5059957;27;119257;-76
2022/06/04 06:30:15;;;;;;;4.13;1.73;;;18.70;99.90;;;21.14;47.10;99817.81;5060153;27;119650;-76
2022/06/04 06:32:45;;;;;;;6.20;1.80;;;18.80;99.90;;;21.29;47.57;99806.97;5059328;27;129684;-73
2022/06/04 06:35:13;;;;;;;4.95;1.80;;;18.90;99.90;;;21.44;45.33;99819.75;5059402;27;129729;-75
2022/06/04 06:37:43;;;;;;;3.58;1.80;;;19.10;99.90;;;21.54;46.14;99813.56;5043309;27;121609;-77
2022/06/04 06:40:13;;;;;;;3.78;1.77;;;19.20;99.90;;;21.81;46.90;99807.91;5041647;27;122356;-79
2022/06/04 06:42:42;;;;;;;4.47;2.72;;;19.50;99.90;;;21.86;45.77;99807.59;5059404;27;130476;-78
2022/06/04 06:45:11;;;;;;;4.45;2.33;;;19.60;99.90;;;21.92;45.32;99804.47;5059701;27;129487;-75
2022/06/04 06:47:40;;;;;;;3.63;2.22;;;19.80;99.90;;;22.05;45.45;99803.00;5060239;27;119865;-75
2022/06/04 06:50:11;;;;;;;5.47;2.10;;;19.70;99.90;;;22.12;44.42;99796.75;5059529;27;119557;-76
2022/06/04 06:52:40;;;;;;;4.63;2.13;;;19.50;99.90;;;21.90;45.23;99797.34;5060096;27;130097;-77
2022/06/04 06:55:10;;;;;;;4.35;2.08;;;19.40;99.90;;;21.92;44.92;99798.94;5060206;27;129615;-77
2022/06/04 06:57:39;;;;;;;5.05;2.22;;;19.40;99.90;;;22.00;45.03;99786.75;5060174;27;120231;-74
2022/06/04 07:00:10;;;;;;;4.55;2.30;;;19.50;99.90;;;22.09;44.06;99787.22;5044430;27;118881;-80
2022/06/04 07:02:39;;;;;;;4.68;1.67;;;19.80;99.90;;;22.05;44.67;99791.94;5058981;27;129647;-77
2022/06/04 07:05:10;;;;;;;3.88;1.98;;;19.70;99.90;;;21.76;44.52;99783.41;5059195;27;130439;-75
2022/06/04 07:07:39;;;;;;;4.50;2.05;;;19.50;99.90;;;21.70;43.73;99782.16;5060728;27;120127;-77
2022/06/04 07:10:09;;;;;;;3.85;1.80;;;19.30;99.90;;;21.82;45.04;99783.84;5059689;27;119817;-75
2022/06/04 07:12:38;;;;;;;2.75;1.70;;;19.40;99.90;;;22.12;44.00;99789.22;5059551;27;130951;-76
2022/06/04 07:15:07;;;;;;;3.70;1.85;;;19.70;99.90;;;22.08;43.80;99785.66;5044548;27;129169;-75
2022/06/04 07:17:36;;;;;;;3.40;1.60;;;19.70;99.90;;;22.05;43.26;99778.91;5059922;27;119748;-77
2022/06/04 07:20:05;;;;;;;8.07;2.00;;;19.60;99.90;;;22.14;44.36;99784.09;5046254;27;119062;-74
2022/06/04 07:22:35;;;;;;;3.20;1.70;;;19.90;99.90;;;22.23;40.55;99776.28;5040530;27;129715;-75
2022/06/04 07:25:04;;;;;;;4.43;1.90;;;19.70;99.90;;;22.51;42.43;99774.91;5058680;27;130241;-76
2022/06/04 07:27:33;;;;;;;4.20;1.75;;;20.10;99.90;;;22.98;42.20;99775.97;5057844;27;122108;-75
2022/06/04 07:30:02;;;;;;;5.07;1.90;;;20.50;99.90;;;23.22;39.86;99778.41;5059183;27;121653;-73
2022/06/04 07:32:30;;;;;;;6.50;1.83;;;20.60;99.90;;;23.38;39.19;99776.09;5057226;27;129830;-75
2022/06/04 07:34:59;;;;;;;4.65;1.90;;;20.70;99.90;;;23.45;40.16;99769.78;5059014;27;130259;-75
2022/06/04 07:37:28;;;;;;;4.80;1.70;;;20.80;99.90;;;23.60;39.26;99771.41;5059453;27;119884;-76
2022/06/04 07:39:58;;;;;;;4.03;1.50;;;20.80;99.90;;;23.64;37.08;99771.41;5059156;27;119135;-75
2022/06/04 07:42:28;;;;;;;5.72;2.30;;;20.80;99.90;;;23.51;40.19;99773.75;5058944;27;130089;-74
2022/06/04 07:44:57;;;;;;;2.95;1.80;;;20.90;99.90;;;23.49;37.83;99770.59;5058893;27;130464;-75
2022/06/04 07:47:26;;;;;;;3.08;1.85;;;20.80;99.90;;;23.14;36.33;99777.63;5059602;27;119433;-78
2022/06/04 07:49:57;;;;;;;3.22;1.83;;;20.40;99.90;;;23.46;35.65;99765.84;5044602;27;119176;-79
2022/06/04 07:52:25;;;;;;;3.22;1.60;;;20.60;99.90;;;23.55;37.04;99760.72;5060227;27;128494;-74
2022/06/04 07:54:54;;;;;;;2.58;1.70;;;20.70;99.90;;;23.79;37.75;99761.13;5027455;27;128686;-75
2022/06/04 07:57:24;;;;;;;5.15;1.90;;;21.20;99.90;;;23.98;37.27;99766.31;5045351;27;118536;-74
2022/06/04 07:59:53;;;;;;;3.72;2.03;;;21.30;99.90;;;24.33;36.08;99767.47;5043543;27;118845;-77
2022/06/04 08:02:24;;;;;;;4.85;2.25;;;21.40;99.90;;;23.78;37.37;99765.06;5057785;27;129949;-80
2022/06/04 08:04:54;;;;;;;3.72;1.42;;;21.00;99.90;;;23.66;38.08;99763.50;5061930;27;129760;-78
2022/06/04 08:07:24;;;;;;;2.83;1.55;;;20.80;99.90;;;24.41;38.91;99769.03;5054201;27;119615;-77
2022/06/04 08:09:53;;;;;;;4.03;1.85;;;21.50;99.90;;;24.69;36.54;99761.06;5064450;27;118949;-76
2022/06/04 08:12:23;;;;;;;5.22;2.15;;;21.80;99.90;;;24.18;36.51;99772.25;5063264;27;130682;-76
2022/06/04 08:14:52;;;;;;;3.95;1.73;;;20.60;99.90;;;23.64;37.49;99766.66;5043338;27;129922;-74
2022/06/04 08:17:23;;;;;;;3.42;2.17;;;20.60;99.90;;;23.43;37.21;99761.09;5042017;27;120998;-74
2022/06/04 08:19:52;;;;;;;4.97;2.10;;;20.00;99.90;;;23.15;37.97;99768.13;5043114;27;121164;-73
2022/06/04 08:22:20;;;;;;;7.18;2.10;;;20.20;99.90;;;22.96;37.99;99767.25;5041022;27;129672;-75
2022/06/04 08:24:49;;;;;;;4.00;1.70;;;20.00;99.90;;;22.92;37.12;99771.16;5040918;27;129906;-73
2022/06/04 08:27:20;;;;;;;3.67;1.63;;;19.80;99.90;;;23.72;37.91;99766.66;5041192;27;119412;-76
2022/06/04 08:29:50;;;;;;;3.65;1.70;;;20.60;99.90;;;24.34;36.36;99768.25;5043446;27;118490;-74
2022/06/04 08:32:20;;;;;;;7.25;2.03;;;21.40;99.90;;;24.69;36.91;99763.84;5040670;27;129895;-77
2022/06/04 08:34:48;;;;;;;2.00;1.27;;;21.70;99.90;;;25.01;36.68;99755.41;5041587;27;129766;-75
2022/06/04 08:37:18;;;;;;;2.88;1.27;;;22.20;99.90;;;25.67;35.13;99755.84;5041234;27;119649;-73
2022/06/04 08:39:46;;;;;;;4.82;1.70;;;22.60;99.90;;;25.74;34.01;99756.59;5008952;27;118667;-73
2022/06/04 08:42:38;;;;;;;2.15;1.40;;;22.10;99.90;;;25.87;34.11;99758.84;5040083;27;129564;-75
2022/06/04 08:45:13;;;;;;;3.95;1.50;;;22.30;99.90;;;26.19;34.74;99753.84;5042586;27;129543;-74
2022/06/04 08:47:47;;;;;;;3.78;1.38;;;22.80;99.90;;;25.59;34.16;99760.66;5026203;27;119870;-75
2022/06/04 08:50:22;;;;;;;3.72;1.60;;;22.40;99.90;;;25.10;33.89;99752.97;5022401;27;119715;-76
2022/06/04 08:52:54;;;;;;;3.40;1.73;;;21.20;99.90;;;24.45;36.07;99746.84;5041360;27;130082;-74
2022/06/04 08:58:39;;;;;;;3.63;1.80;;;20.20;99.90;;;24.46;37.38;99747.63;5047205;27;120104;-75
2022/06/04 09:01:16;;;;;;;7.38;2.30;;;20.60;99.90;;;24.53;36.00;99742.06;5048566;27;119903;-75
2022/06/04 09:03:55;;;;;;;6.07;2.10;;;20.80;99.90;;;24.76;35.82;99741.59;5046648;27;130137;-74
2022/06/04 09:06:38;;;;;;;4.45;1.42;;;21.40;99.90;;;24.50;37.12;99737.34;5026710;27;130256;-74
2022/06/04 09:09:15;;;;;;;6.20;1.70;;;21.50;99.90;;;24.04;36.82;99745.34;5041525;27;120701;-74
2022/06/04 09:11:55;;;;;;;3.63;1.80;;;20.90;99.90;;;23.62;39.23;99741.34;5022494;27;121923;-76
2022/06/04 09:14:37;;;;;;;6.57;2.20;;;20.50;99.90;;;23.35;38.48;99743.66;5040387;27;129966;-77
2022/06/04 09:17:13;;;;;;;4.28;1.75;;;20.40;99.90;;;24.22;38.34;99744.50;5021325;27;130196;-75
2022/06/04 09:19:44;;;;;;;6.13;2.00;;;21.30;99.90;;;24.23;37.31;99735.00;5025703;27;118588;-75
2022/06/04 09:22:23;;;;;;;4.28;2.03;;;21.30;99.90;;;23.95;37.63;99730.28;5010221;27;118549;-77
2022/06/04 09:24:52;;;;;;;4.25;2.10;;;21.10;99.90;;;23.74;37.19;99736.59;5039853;27;131438;-76
2022/06/04 09:27:34;;;;;;;3.38;2.00;;;20.70;99.90;;;23.39;38.46;99727.03;5013866;27;129567;-75
2022/06/04 09:30:16;;;;;;;5.53;2.25;;;20.50;99.90;;;23.50;39.87;99739.75;5040410;27;119936;-76
2022/06/04 09:33:19;;;;;;;3.53;1.83;;;20.60;99.90;;;24.08;39.19;99733.44;5025344;27;118478;-78
2022/06/04 09:35:48;;;;;;;5.60;2.15;;;21.40;99.90;;;24.46;37.30;99731.78;5023712;27;129396;-73
2022/06/04 09:38:28;;;;;;;3.67;1.80;;;21.30;99.90;;;24.71;37.52;99722.63;5039717;27;129649;-75
2022/06/04 09:41:03;;;;;;;3.78;1.80;;;21.60;99.90;;;24.87;37.85;99730.47;5040244;27;119860;-75
2022/06/04 09:43:32;;;;;;;2.15;1.60;;;21.80;99.90;;;25.40;37.26;99732.22;5028823;27;119693;-76
2022/06/04 09:46:03;;;;;;;5.40;2.00;;;22.20;99.90;;;25.60;36.80;99728.88;5024960;27;128711;-74
2022/06/04 09:48:38;;;;;;;3.15;1.90;;;22.60;99.90;;;25.33;35.13;99726.69;5025406;27;128697;-77
2022/06/04 09:51:17;;;;;;;3.28;2.03;;;22.30;99.90;;;25.51;35.21;99721.03;5040248;27;120134;-72
2022/06/04 09:53:51;;;;;;;4.65;2.10;;;22.50;99.90;;;25.83;35.41;99715.19;5036556;27;119257;-75
2022/06/04 09:56:33;;;;;;;3.45;1.95;;;22.60;99.90;;;26.16;35.17;99707.38;5018049;28;129279;-76
2022/06/04 09:59:20;;;;;;;7.07;2.85;;;23.10;99.90;;;26.07;34.52;99714.59;5002237;28;129439;-78
2022/06/04 10:02:06;;;;;;;5.22;2.10;;;22.80;99.90;;;26.22;34.62;99695.81;5034839;27;122095;-76
2022/06/04 10:04:46;;;;;;;2.90;1.70;;;22.80;99.90;;;26.49;33.86;99707.81;5032982;27;120790;-76
2022/06/04 10:07:22;;;;;;;3.60;1.95;;;23.20;99.90;;;26.21;34.59;99689.47;5041988;27;129486;-74
2022/06/04 10:09:58;;;;;;;5.60;1.60;;;23.00;99.90;;;26.16;33.12;99690.69;5064682;27;130788;-76
2022/06/04 10:15:31;;;;;;;2.55;1.40;;;23.10;99.90;;;26.46;31.61;99688.38;5063363;27;119407;-77
2022/06/04 10:18:07;;;;;;;3.65;1.60;;;23.30;99.90;;;26.44;33.01;99682.44;5060215;27;128749;-74
2022/06/04 10:20:37;;;;;;;3.80;1.67;;;22.90;99.90;;;26.58;31.18;99673.13;5060178;27;130438;-79
2022/06/04 10:23:14;;;;;;;3.08;1.50;;;23.30;99.90;;;26.81;31.90;99673.25;5059753;27;120396;-77
2022/06/04 10:26:00;;;;;;;3.20;1.40;;;23.40;99.90;;;26.93;28.93;99665.53;5055543;27;119343;-75
2022/06/04 10:28:41;;;;;;;3.03;1.50;;;23.00;99.90;;;26.85;29.79;99671.22;5056691;27;130568;-77
2022/06/04 10:31:24;;;;;;;3.90;1.80;;;23.00;99.90;;;26.66;30.38;99667.09;5034200;27;129075;-72
2022/06/04 10:34:02;;;;;;;3.10;1.40;;;22.80;99.90;;;26.62;30.86;99673.88;5059511;27;119574;-75
2022/06/04 10:36:50;;;;;;;3.88;1.75;;;22.80;99.90;;;25.79;31.73;99675.53;5037580;27;118576;-75
2022/06/04 10:39:33;;;;;;;3.35;1.60;;;22.40;99.90;;;25.32;32.57;99658.44;5059037;27;129777;-76
2022/06/04 10:42:11;;;;;;;3.72;1.58;;;21.80;99.90;;;25.75;34.21;99652.53;5058659;27;130163;-76
2022/06/04 10:45:07;;;;;;;3.17;1.73;;;22.40;99.90;;;25.50;34.01;99649.19;5070757;27;119555;-75
2022/06/04 10:47:43;;;;;;;2.72;1.60;;;22.60;99.90;;;25.98;33.44;99654.72;5061434;27;119945;-76
2022/06/04 10:50:31;;;;;;;;;;;22.70;99.90;;;26.22;33.94;99645.75;5061263;27;129310;-75